createdAt,value
2022-08-20T00:04:21.280Z,99639.31
2022-08-20T00:09:23.137Z,99655.69
2022-08-20T00:14:24.730Z,99652.72
2022-08-20T00:19:27.096Z,99665.47
2022-08-20T00:24:29.545Z,99667.56
2022-08-20T00:29:31.672Z,99677.34
2022-08-20T00:34:33.300Z,99664.06
2022-08-20T00:39:35.364Z,99668.72
2022-08-20T00:44:37.262Z,99667.19
2022-08-20T00:49:38.968Z,99674.44
2022-08-20T00:54:55.305Z,99672.50
2022-08-20T00:59:58.816Z,99666.41
2022-08-20T01:05:00.749Z,99682.50
2022-08-20T01:10:10.348Z,99693.06
2022-08-20T01:15:16.752Z,99702.59
2022-08-20T01:20:34.808Z,99709.19
2022-08-20T01:25:41.412Z,99702.63
2022-08-20T01:30:43.097Z,99706.69
2022-08-20T01:35:44.863Z,99706.47
2022-08-20T01:41:08.108Z,99688.88
2022-08-20T01:46:10.407Z,99688.47
2022-08-20T01:51:21.766Z,99683.78
2022-08-20T01:56:31.070Z,99670.66
2022-08-20T02:01:46.204Z,99660.50
2022-08-20T02:06:57.674Z,99645.69
2022-08-20T02:12:00.805Z,99651.19
2022-08-20T02:17:02.701Z,99651.19
2022-08-20T02:22:21.789Z,99647.53
2022-08-20T02:27:23.718Z,99644.34
2022-08-20T02:32:33.831Z,99635.47
2022-08-20T02:37:37.578Z,99654.97
2022-08-20T02:42:42.665Z,99651.19
2022-08-20T02:47:46.048Z,99642.31
2022-08-20T02:52:51.533Z,99635.09
2022-08-20T02:57:59.961Z,99633.34
2022-08-20T03:03:02.235Z,99600.91
2022-08-20T03:08:04.287Z,99604.94
2022-08-20T03:13:11.311Z,99626.97
2022-08-20T03:18:14.083Z,99643.91
2022-08-20T03:23:17.307Z,99662.38
2022-08-20T03:28:19.574Z,99651.59
2022-08-20T03:33:21.678Z,99643.53
2022-08-20T03:38:32.384Z,99651.19
2022-08-20T03:43:35.298Z,99656.69
2022-08-20T03:48:37.277Z,99642.47
2022-08-20T03:53:39.008Z,99649.41
2022-08-20T03:58:40.630Z,99643.91
2022-08-20T04:03:42.312Z,99636.31
2022-08-20T04:08:43.899Z,99646.06
2022-08-20T04:13:45.485Z,99641.81
2022-08-20T04:18:58.632Z,99647.34
2022-08-20T04:24:05.785Z,99665.56
2022-08-20T04:29:08.122Z,99674.22
2022-08-20T04:34:09.748Z,99695.03
2022-08-20T04:39:11.339Z,99690.59
2022-08-20T04:44:12.980Z,99685.94
2022-08-20T04:49:14.578Z,99681.72
2022-08-20T04:54:16.209Z,99686.78
2022-08-20T04:59:17.929Z,99689.75
2022-08-20T05:04:19.509Z,99702.91
2022-08-20T05:09:21.141Z,99701.63
2022-08-20T05:14:22.722Z,99699.06
2022-08-20T05:19:24.444Z,99705.00
2022-08-20T05:24:26.445Z,99694.81
2022-08-20T05:29:28.648Z,99694.63
2022-08-20T05:34:30.364Z,99685.53
2022-08-20T05:39:35.503Z,99681.91
2022-08-20T05:44:39.451Z,99688.69
2022-08-20T05:49:41.140Z,99685.97
2022-08-20T05:54:42.729Z,99685.53
2022-08-20T05:59:44.368Z,99683.41
2022-08-20T06:04:46.087Z,99678.56
2022-08-20T06:09:57.904Z,99700.75
2022-08-20T06:14:59.656Z,99699.88
2022-08-20T06:20:06.516Z,99706.25
2022-08-20T06:25:10.309Z,99705.56
2022-08-20T06:30:14.204Z,99718.22
2022-08-20T06:35:19.770Z,99711.66
2022-08-20T06:40:28.540Z,99707.88
2022-08-20T06:45:32.793Z,99701.56
2022-08-20T06:50:47.142Z,99712.16
2022-08-20T06:55:55.374Z,99705.56
2022-08-20T07:00:57.036Z,99708.91
2022-08-20T07:05:59.402Z,99707.66
2022-08-20T07:11:01.733Z,99709.50
2022-08-20T07:16:05.116Z,99710.94
2022-08-20T07:21:06.809Z,99706.84
2022-08-20T07:26:08.637Z,99711.34
2022-08-20T07:31:31.353Z,99701.44
2022-08-20T07:36:33.309Z,99713.66
2022-08-20T07:41:34.960Z,99721.28
2022-08-20T07:46:36.572Z,99704.81
2022-08-20T07:51:38.241Z,99704.25
2022-08-20T07:56:39.836Z,99718.09
2022-08-20T08:01:41.998Z,99721.38
2022-08-20T08:06:45.361Z,99724.34
2022-08-20T08:11:50.362Z,99730.16
2022-08-20T08:16:55.250Z,99743.16
2022-08-20T08:21:58.717Z,99727.38
2022-08-20T08:27:00.472Z,99724.50
2022-08-20T08:32:03.670Z,99721.59
2022-08-20T08:37:06.170Z,99731.00
2022-08-20T08:42:26.078Z,99729.88
2022-08-20T08:47:34.672Z,99724.47
2022-08-20T08:52:42.860Z,99720.38
2022-08-20T08:57:46.641Z,99728.16
2022-08-20T09:03:16.058Z,99734.94
2022-08-20T09:08:24.381Z,99726.44
2022-08-20T09:13:26.018Z,99740.22
2022-08-20T09:18:27.976Z,99735.66
2022-08-20T09:23:29.641Z,99730.34
2022-08-20T09:28:32.225Z,99724.06
2022-08-20T09:33:36.787Z,99720.22
2022-08-20T09:38:38.364Z,99714.91
2022-08-20T09:43:41.060Z,99731.19
2022-08-20T09:48:42.682Z,99728.88
2022-08-20T09:53:44.416Z,99725.75
2022-08-20T09:58:49.481Z,99728.78
2022-08-20T10:03:51.297Z,99723.63
2022-08-20T10:08:52.900Z,99726.78
2022-08-20T10:13:54.478Z,99712.25
2022-08-20T10:18:56.968Z,99721.38
2022-08-20T10:23:59.395Z,99725.03
2022-08-20T10:29:01.003Z,99733.81
2022-08-20T10:34:02.797Z,99734.66
2022-08-20T10:39:04.593Z,99733.22
2022-08-20T10:44:07.636Z,99738.69
2022-08-20T10:49:09.315Z,99736.84
2022-08-20T10:54:12.519Z,99745.03
2022-08-20T10:59:14.474Z,99743.47
2022-08-20T11:04:16.135Z,99745.91
2022-08-20T11:09:17.773Z,99737.81
2022-08-20T11:14:19.387Z,99739.38
2022-08-20T11:19:21.192Z,99734.69
2022-08-20T11:24:22.900Z,99733.47
2022-08-20T11:29:24.913Z,99725.78
2022-08-20T11:34:26.629Z,99727.34
2022-08-20T11:39:28.399Z,99732.91
2022-08-20T11:44:30.019Z,99725.50
2022-08-20T11:49:34.491Z,99714.50
2022-08-20T11:54:40.493Z,99711.06
2022-08-20T11:59:42.368Z,99711.91
2022-08-20T12:04:44.331Z,99708.13
2022-08-20T12:09:51.107Z,99703.47
2022-08-20T12:14:54.676Z,99702.59
2022-08-20T12:19:58.849Z,99702.38
2022-08-20T12:25:00.549Z,99687.63
2022-08-20T12:30:07.660Z,99681.72
2022-08-20T12:35:10.942Z,99686.13
2022-08-20T12:40:18.225Z,99690.22
2022-08-20T12:45:33.261Z,99695.00
2022-08-20T12:50:37.576Z,99683.59
2022-08-20T12:55:39.308Z,99678.13
2022-08-20T13:00:47.481Z,99678.50
2022-08-20T13:05:52.659Z,99660.44
2022-08-20T13:10:54.289Z,99672.34
2022-08-20T13:15:55.856Z,99667.59
2022-08-20T13:20:57.453Z,99656.22
2022-08-20T13:25:59.071Z,99654.38
2022-08-20T13:31:02.145Z,99637.72
2022-08-20T13:36:04.038Z,99647.91
2022-08-20T13:41:05.760Z,99647.53
2022-08-20T13:46:07.416Z,99644.69
2022-08-20T13:51:09.037Z,99642.53
2022-08-20T13:56:10.760Z,99636.13
2022-08-20T14:01:12.505Z,99631.84
2022-08-20T14:06:14.127Z,99643.72
2022-08-20T14:11:17.756Z,99670.28
2022-08-20T14:16:25.430Z,99670.06
2022-08-20T14:21:29.692Z,99662.13
2022-08-20T14:26:31.247Z,99664.63
2022-08-20T14:31:32.868Z,99679.81
2022-08-20T14:36:34.481Z,99686.34
2022-08-20T14:41:36.055Z,99691.78
2022-08-20T14:46:37.614Z,99703.09
2022-08-20T14:51:39.213Z,99705.06
2022-08-20T14:56:41.214Z,99708.38
2022-08-20T15:01:43.085Z,99718.69
2022-08-20T15:06:45.784Z,99739.56
2022-08-20T15:11:47.953Z,99728.69
2022-08-20T15:16:49.568Z,99740.56
2022-08-20T15:21:51.300Z,99754.25
2022-08-20T15:26:52.937Z,99749.66
2022-08-20T15:31:54.537Z,99765.03
2022-08-20T15:36:57.664Z,99756.50
2022-08-20T15:41:59.316Z,99768.31
2022-08-20T15:47:20.111Z,99778.91
2022-08-20T15:52:21.928Z,99774.56
2022-08-20T15:57:46.697Z,99773.06
2022-08-20T16:03:17.568Z,99765.31
2022-08-20T16:08:55.954Z,99754.22
2022-08-20T16:14:21.691Z,99750.66
2022-08-20T16:19:31.877Z,99766.63
2022-08-20T16:24:33.618Z,99763.88
2022-08-20T16:30:01.937Z,99774.91
2022-08-20T16:35:17.862Z,99766.44
2022-08-20T16:40:27.815Z,99766.81
2022-08-20T16:45:33.729Z,99778.69
2022-08-20T16:50:57.210Z,99777.44
2022-08-20T16:55:58.846Z,99791.81
2022-08-20T17:01:10.489Z,99776.78
2022-08-20T17:06:46.826Z,99804.97
2022-08-20T17:11:48.516Z,99799.03
2022-08-20T17:16:52.468Z,99802.41
2022-08-20T17:21:55.719Z,99796.47
2022-08-20T17:26:57.548Z,99795.44
2022-08-20T17:32:15.411Z,99784.22
2022-08-20T17:37:27.516Z,99775.72
2022-08-20T17:42:29.158Z,99785.47
2022-08-20T17:47:34.943Z,99788.03
2022-08-20T17:52:52.687Z,99798.34
2022-08-20T17:57:59.484Z,99798.09
2022-08-20T18:03:25.107Z,99798.16
2022-08-20T18:08:30.767Z,99814.28
2022-08-20T18:13:55.393Z,99821.56
2022-08-20T18:19:06.140Z,99816.56
2022-08-20T18:24:15.639Z,99814.25
2022-08-20T18:29:22.150Z,99842.25
2022-08-20T18:34:28.501Z,99847.28
2022-08-20T18:39:38.266Z,99846.03
2022-08-20T18:44:45.682Z,99852.97
2022-08-20T18:50:16.057Z,99844.25
2022-08-20T18:55:35.995Z,99849.63
2022-08-20T19:00:42.134Z,99859.53
2022-08-20T19:05:46.673Z,99855.75
2022-08-20T19:11:10.915Z,99864.19
2022-08-20T19:16:21.760Z,99849.38
2022-08-20T19:21:32.066Z,99844.00
2022-08-20T19:26:42.842Z,99856.09
2022-08-20T19:31:44.640Z,99864.19
2022-08-20T19:36:46.626Z,99864.63
2022-08-20T19:41:56.114Z,99855.63
2022-08-20T19:46:59.809Z,99851.78
2022-08-20T19:52:19.767Z,99852.19
2022-08-20T19:57:23.381Z,99852.66
2022-08-20T20:02:30.369Z,99842.09
2022-08-20T20:07:41.992Z,99848.09
2022-08-20T20:12:46.747Z,99842.97
2022-08-20T20:17:48.695Z,99825.34
2022-08-20T20:22:53.454Z,99820.31
2022-08-20T20:27:58.748Z,99818.69
2022-08-20T20:33:10.710Z,99818.28
2022-08-20T20:38:33.015Z,99813.53
2022-08-20T20:43:42.188Z,99812.47
2022-08-20T20:48:50.833Z,99812.88
2022-08-20T20:53:54.975Z,99796.41
2022-08-20T20:59:00.171Z,99808.16
2022-08-20T21:04:04.311Z,99800.97
2022-08-20T21:09:05.923Z,99797.38
2022-08-20T21:14:07.492Z,99813.94
2022-08-20T21:19:11.163Z,99807.75
2022-08-20T21:24:13.228Z,99800.78
2022-08-20T21:29:17.781Z,99799.09
2022-08-20T21:34:19.465Z,99809.38
2022-08-20T21:39:21.076Z,99815.47
2022-08-20T21:44:26.759Z,99810.66
2022-08-20T21:49:31.638Z,99820.56
2022-08-20T21:54:33.617Z,99815.34
2022-08-20T21:59:38.020Z,99818.25
2022-08-20T22:04:39.742Z,99823.75
2022-08-20T22:09:41.536Z,99826.72
2022-08-20T22:14:43.776Z,99814.41
2022-08-20T22:19:45.454Z,99821.22
2022-08-20T22:24:47.324Z,99815.88
2022-08-20T22:29:48.993Z,99810.22
2022-08-20T22:34:50.669Z,99815.03
2022-08-20T22:39:52.318Z,99814.56
2022-08-20T22:44:54.003Z,99805.78
2022-08-20T22:49:57.361Z,99788.28
2022-08-20T22:54:58.997Z,99789.84
2022-08-20T23:00:01.179Z,99802.31
2022-08-20T23:05:03.281Z,99811.34
2022-08-20T23:10:05.208Z,99813.69
2022-08-20T23:15:07.780Z,99809.56
2022-08-20T23:20:13.932Z,99812.94
2022-08-20T23:25:15.845Z,99807.38
2022-08-20T23:30:20.121Z,99797.66
2022-08-20T23:35:22.672Z,99800.47
2022-08-20T23:40:28.936Z,99801.06
2022-08-20T23:45:31.567Z,99814.25
2022-08-20T23:50:33.688Z,99810.84
2022-08-20T23:55:35.532Z,99815.72
